Time,TemperatureF,DewpointF,PressureIn,WindDirection,WindDirectionDegrees,WindSpeedMPH,WindSpeedGustMPH,Humidity,HourlyPrecipIn,Conditions,Clouds,dailyrainin,SoftwareType,DateUTC
2013-09-29 00:13:00,47.8,45.0,30.22,SSW,213,0.0,-999.0,89,-99.99,,,0.00,weatherlink.com 1.10,2013-09-29 04:13:00,
2013-09-29 00:28:00,47.4,45.0,30.22,SSW,213,0.0,-999.0,90,-99.99,,,0.00,weatherlink.com 1.10,2013-09-29 04:28:00,
2013-09-29 00:43:00,47.1,44.0,30.22,SSW,213,0.0,-999.0,90,-99.99,,,0.00,weatherlink.com 1.10,2013-09-29 04:43:00,
2013-09-29 00:58:00,46.7,44.0,30.22,SSW,213,0.0,-999.0,90,-99.99,,,0.00,weatherlink.com 1.10,2013-09-29 04:58:00,
2013-09-29 01:13:00,46.4,44.0,30.23,SSW,213,0.0,-999.0,90,-99.99,,,0.00,weatherlink.com 1.10,2013-09-29 05:13:00,
2013-09-29 01:28:00,46.0,44.0,30.23,SSW,213,0.0,-999.0,91,-99.99,,,0.00,weatherlink.com 1.10,2013-09-29 05:28:00,
2013-09-29 01:43:00,45.7,43.0,30.22,SSW,213,0.0,-999.0,91,-99.99,,,0.00,weatherlink.com 1.10,2013-09-29 05:43:00,
2013-09-29 01:58:00,45.6,43.0,30.22,SSW,213,0.0,-999.0,91,-99.99,,,0.00,weatherlink.com 1.10,2013-09-29 05:58:00,
2013-09-29 02:13:00,45.4,43.0,30.21,SSW,213,0.0,-999.0,91,-99.99,,,0.00,weatherlink.com 1.10,2013-09-29 06:13:00,
2013-09-29 02:28:00,45.0,43.0,30.21,SSW,213,0.0,-999.0,91,-99.99,,,0.00,weatherlink.com 1.10,2013-09-29 06:28:00,
2013-09-29 02:43:00,44.6,42.0,30.20,SSW,213,0.0,-999.0,91,-99.99,,,0.00,weatherlink.com 1.10,2013-09-29 06:43:00,
2013-09-29 02:58:00,44.3,42.0,30.20,SSW,213,0.0,-999.0,91,-99.99,,,0.00,weatherlink.com 1.10,2013-09-29 06:58:00,
2013-09-29 03:13:00,44.0,42.0,30.20,SSW,213,0.0,-999.0,91,-99.99,,,0.00,weatherlink.com 1.10,2013-09-29 07:13:00,
2013-09-29 03:28:00,43.8,42.0,30.20,SSW,213,0.0,-999.0,92,-99.99,,,0.00,weatherlink.com 1.10,2013-09-29 07:28:00,
2013-09-29 03:43:00,43.8,42.0,30.19,SSW,213,0.0,-999.0,92,-99.99,,,0.00,weatherlink.com 1.10,2013-09-29 07:43:00,
2013-09-29 03:58:00,43.5,41.0,30.19,SSW,213,0.0,-999.0,92,-99.99,,,0.00,weatherlink.com 1.10,2013-09-29 07:58:00,
2013-09-29 04:13:00,43.2,41.0,30.19,SSW,213,0.0,-999.0,92,-99.99,,,0.00,weatherlink.com 1.10,2013-09-29 08:13:00,
2013-09-29 04:28:00,43.0,41.0,30.19,SSW,213,0.0,-999.0,92,-99.99,,,0.00,weatherlink.com 1.10,2013-09-29 08:28:00,
2013-09-29 04:43:00,42.8,41.0,30.19,SSW,213,0.0,-999.0,92,-99.99,,,0.00,weatherlink.com 1.10,2013-09-29 08:43:00,
2013-09-29 04:58:00,42.5,40.0,30.19,SSW,213,0.0,-999.0,92,-99.99,,,0.00,weatherlink.com 1.10,2013-09-29 08:58:00,
2013-09-29 05:13:00,42.3,40.0,30.19,SSW,213,0.0,-999.0,92,-99.99,,,0.00,weatherlink.com 1.10,2013-09-29 09:13:00,
2013-09-29 05:28:00,42.3,40.0,30.19,SSW,213,0.0,-999.0,92,-99.99,,,0.00,weatherlink.com 1.10,2013-09-29 09:28:00,
2013-09-29 05:43:00,42.3,41.0,30.19,SSW,213,0.0,-999.0,93,-99.99,,,0.00,weatherlink.com 1.10,2013-09-29 09:43:00,
2013-09-29 05:58:00,42.3,41.0,30.20,SSW,213,0.0,-999.0,93,-99.99,,,0.00,weatherlink.com 1.10,2013-09-29 09:58:00,
2013-09-29 06:13:00,42.1,40.0,30.20,SSW,213,0.0,-999.0,93,-99.99,,,0.00,weatherlink.com 1.10,2013-09-29 10:13:00,
2013-09-29 06:28:00,42.1,40.0,30.20,SSW,213,0.0,-999.0,93,-99.99,,,0.00,weatherlink.com 1.10,2013-09-29 10:28:00,
2013-09-29 06:43:00,42.0,40.0,30.20,SSW,213,0.0,-999.0,93,-99.99,,,0.00,weatherlink.com 1.10,2013-09-29 10:43:00,
2013-09-29 06:58:00,41.8,40.0,30.20,SSW,213,0.0,-999.0,93,-99.99,,,0.00,weatherlink.com 1.10,2013-09-29 10:58:00,
2013-09-29 07:13:00,41.6,40.0,30.20,SSW,213,0.0,-999.0,93,-99.99,,,0.00,weatherlink.com 1.10,2013-09-29 11:13:00,
2013-09-29 07:28:00,41.4,40.0,30.20,SSW,213,0.0,-999.0,93,-99.99,,,0.00,weatherlink.com 1.10,2013-09-29 11:28:00,
2013-09-29 07:43:00,41.4,40.0,30.21,SSW,213,0.0,-999.0,93,-99.99,,,0.00,weatherlink.com 1.10,2013-09-29 11:43:00,
2013-09-29 07:58:00,41.5,40.0,30.21,SSW,213,0.0,-999.0,93,-99.99,,,0.00,weatherlink.com 1.10,2013-09-29 11:58:00,
2013-09-29 08:13:00,42.2,41.0,30.21,SSW,213,0.0,-999.0,94,-99.99,,,0.00,weatherlink.com 1.10,2013-09-29 12:13:00,
2013-09-29 08:28:00,43.6,42.0,30.20,SSW,213,0.0,-999.0,94,-99.99,,,0.00,weatherlink.com 1.10,2013-09-29 12:28:00,
2013-09-29 08:43:00,44.9,44.0,30.20,SSW,213,0.0,-999.0,95,-99.99,,,0.00,weatherlink.com 1.10,2013-09-29 12:43:00,
2013-09-29 08:59:00,46.5,45.0,30.20,SSW,213,0.0,-999.0,95,-99.99,,,0.00,weatherlink.com 1.10,2013-09-29 12:59:00,
2013-09-29 09:14:00,49.0,48.0,30.19,SSW,212,0.0,-999.0,95,-99.99,,,0.00,weatherlink.com 1.10,2013-09-29 13:14:00,
2013-09-29 09:29:00,50.9,50.0,30.19,SSW,213,0.0,-999.0,95,-99.99,,,0.00,weatherlink.com 1.10,2013-09-29 13:29:00,
2013-09-29 09:44:00,51.8,51.0,30.19,SSW,211,0.0,-999.0,95,-99.99,,,0.00,weatherlink.com 1.10,2013-09-29 13:44:00,
2013-09-29 09:59:00,53.3,52.0,30.19,ENE,57,0.0,-999.0,94,-99.99,,,0.00,weatherlink.com 1.10,2013-09-29 13:59:00,
2013-09-29 10:14:00,54.8,52.0,30.19,ENE,61,0.0,-999.0,91,-99.99,,,0.00,weatherlink.com 1.10,2013-09-29 14:14:00,
2013-09-29 10:29:00,56.4,53.0,30.19,ENE,62,0.0,-999.0,87,-99.99,,,0.00,weatherlink.com 1.10,2013-09-29 14:29:00,
2013-09-29 10:44:00,58.6,53.0,30.19,West,280,0.0,-999.0,81,-99.99,,,0.00,weatherlink.com 1.10,2013-09-29 14:44:00,
2013-09-29 10:59:00,61.0,53.0,30.18,WSW,237,1.0,-999.0,76,-99.99,,,0.00,weatherlink.com 1.10,2013-09-29 14:59:00,
2013-09-29 11:14:00,63.1,54.0,30.18,NNW,338,0.0,-999.0,71,-99.99,,,0.00,weatherlink.com 1.10,2013-09-29 15:14:00,
2013-09-29 11:29:00,65.1,54.0,30.17,SW,232,2.0,-999.0,68,-99.99,,,0.00,weatherlink.com 1.10,2013-09-29 15:29:00,
2013-09-29 11:44:00,65.7,54.0,30.16,WSW,255,3.0,-999.0,66,-99.99,,,0.00,weatherlink.com 1.10,2013-09-29 15:44:00,
2013-09-29 11:59:00,66.1,54.0,30.16,WSW,254,1.0,-999.0,65,-99.99,,,0.00,weatherlink.com 1.10,2013-09-29 15:59:00,
2013-09-29 12:14:00,66.6,55.0,30.15,SSW,211,1.0,-999.0,66,-99.99,,,0.00,weatherlink.com 1.10,2013-09-29 16:14:00,
2013-09-29 12:29:00,67.5,55.0,30.15,SSW,202,1.0,-999.0,64,-99.99,,,0.00,weatherlink.com 1.10,2013-09-29 16:29:00,
2013-09-29 12:30:00,67.5,55.3,30.15,West,278,1.0,2.0,65,0.00,,,0.00,Wunderground v.1.15,2013-09-29 16:30:00,
2013-09-29 12:35:00,68.0,54.5,30.15,West,267,2.0,2.0,62,0.00,,,0.00,Wunderground v.1.15,2013-09-29 16:35:00,
2013-09-29 12:40:00,67.8,54.3,30.15,SW,222,3.0,5.0,62,0.00,,,0.00,Wunderground v.1.15,2013-09-29 16:40:00,
2013-09-29 12:45:00,67.6,55.0,30.15,SW,222,1.0,5.0,64,0.00,,,0.00,Wunderground v.1.15,2013-09-29 16:45:00,
2013-09-29 12:55:00,67.5,54.5,30.14,WSW,250,1.0,1.0,63,0.00,,,0.00,Wunderground v.1.15,2013-09-29 16:55:00,
2013-09-29 13:00:00,68.1,55.0,30.14,West,281,2.0,-999.0,64,-99.99,,,0.00,weatherlink.com 1.10,2013-09-29 17:00:00,
2013-09-29 13:10:00,68.3,54.8,30.14,SW,223,1.0,2.0,62,0.00,,,0.00,Wunderground v.1.15,2013-09-29 17:10:00,
2013-09-29 13:15:00,68.3,54.0,30.13,West,260,0.0,-999.0,61,-99.99,,,0.00,weatherlink.com 1.10,2013-09-29 17:15:00,
2013-09-29 13:25:00,68.4,54.9,30.13,West,263,2.0,5.0,62,0.00,,,0.00,Wunderground v.1.15,2013-09-29 17:25:00,
2013-09-29 13:30:00,68.5,54.5,30.12,West,267,2.0,2.0,61,0.00,,,0.00,Wunderground v.1.15,2013-09-29 17:30:00,
2013-09-29 13:40:00,69.1,56.8,30.12,WNW,301,1.0,5.0,65,0.00,,,0.00,Wunderground v.1.15,2013-09-29 17:40:00,
2013-09-29 13:45:00,70.0,55.5,30.11,NNW,341,1.0,5.0,60,0.00,,,0.00,Wunderground v.1.15,2013-09-29 17:45:00,
2013-09-29 13:46:00,70.4,55.0,30.11,WSW,258,1.0,-999.0,59,-99.99,,,0.00,weatherlink.com 1.10,2013-09-29 17:46:00,
2013-09-29 13:55:00,70.5,54.5,30.11,SE,146,1.0,5.0,57,0.00,,,0.00,Wunderground v.1.15,2013-09-29 17:55:00,
2013-09-29 14:00:00,70.4,54.0,30.11,WNW,294,1.0,5.0,56,0.00,,,0.00,Wunderground v.1.15,2013-09-29 18:00:00,
2013-09-29 14:02:00,70.3,53.0,30.11,WSW,239,0.0,-999.0,55,-99.99,,,0.00,weatherlink.com 1.10,2013-09-29 18:02:00,
2013-09-29 14:16:00,70.2,55.0,30.10,South,175,1.0,-999.0,58,-99.99,,,0.00,weatherlink.com 1.10,2013-09-29 18:16:00,
2013-09-29 14:31:00,71.0,53.0,30.10,SW,222,0.0,-999.0,54,-99.99,,,0.00,weatherlink.com 1.10,2013-09-29 18:31:00,
2013-09-29 14:46:00,72.8,54.0,30.09,ENE,67,3.0,-999.0,52,-99.99,,,0.00,weatherlink.com 1.10,2013-09-29 18:46:00,
2013-09-29 15:01:00,74.6,54.0,30.08,SSW,213,4.0,-999.0,49,-99.99,,,0.00,weatherlink.com 1.10,2013-09-29 19:01:00,
2013-09-29 15:16:00,74.3,53.0,30.08,WSW,254,4.0,-999.0,47,-99.99,,,0.00,weatherlink.com 1.10,2013-09-29 19:16:00,
2013-09-29 15:31:00,74.9,54.0,30.07,West,261,0.0,-999.0,48,-99.99,,,0.00,weatherlink.com 1.10,2013-09-29 19:31:00,
2013-09-29 15:46:00,75.1,53.0,30.06,West,259,3.0,-999.0,46,-99.99,,,0.00,weatherlink.com 1.10,2013-09-29 19:46:00,
2013-09-29 16:01:00,74.5,52.0,30.06,SW,236,2.0,-999.0,46,-99.99,,,0.00,weatherlink.com 1.10,2013-09-29 20:01:00,
2013-09-29 16:16:00,75.8,53.0,30.06,SSW,204,0.0,-999.0,45,-99.99,,,0.00,weatherlink.com 1.10,2013-09-29 20:16:00,
2013-09-29 16:31:00,75.6,53.0,30.06,NW,309,0.0,-999.0,46,-99.99,,,0.00,weatherlink.com 1.10,2013-09-29 20:31:00,
2013-09-29 16:46:00,74.7,52.0,30.06,South,175,0.0,-999.0,46,-99.99,,,0.00,weatherlink.com 1.10,2013-09-29 20:46:00,
2013-09-29 17:01:00,72.9,53.0,30.06,SSW,192,0.0,-999.0,49,-99.99,,,0.00,weatherlink.com 1.10,2013-09-29 21:01:00,
2013-09-29 17:16:00,72.8,52.0,30.06,South,177,0.0,-999.0,49,-99.99,,,0.00,weatherlink.com 1.10,2013-09-29 21:16:00,
2013-09-29 17:31:00,71.7,52.0,30.06,NW,314,0.0,-999.0,50,-99.99,,,0.00,weatherlink.com 1.10,2013-09-29 21:31:00,
2013-09-29 17:46:00,70.6,52.0,30.07,SSW,205,0.0,-999.0,53,-99.99,,,0.00,weatherlink.com 1.10,2013-09-29 21:46:00,
2013-09-29 18:01:00,69.4,52.0,30.07,SSW,205,0.0,-999.0,55,-99.99,,,0.00,weatherlink.com 1.10,2013-09-29 22:01:00,
2013-09-29 18:16:00,67.6,53.0,30.07,SSW,205,0.0,-999.0,59,-99.99,,,0.00,weatherlink.com 1.10,2013-09-29 22:16:00,
2013-09-29 18:31:00,66.1,53.0,30.07,SSW,205,0.0,-999.0,62,-99.99,,,0.00,weatherlink.com 1.10,2013-09-29 22:31:00,
2013-09-29 18:46:00,64.6,52.0,30.07,SSW,205,0.0,-999.0,65,-99.99,,,0.00,weatherlink.com 1.10,2013-09-29 22:46:00,
2013-09-29 19:01:00,63.4,52.0,30.07,SSW,205,0.0,-999.0,67,-99.99,,,0.00,weatherlink.com 1.10,2013-09-29 23:01:00,
2013-09-29 19:16:00,62.0,52.0,30.06,SSW,205,0.0,-999.0,70,-99.99,,,0.00,weatherlink.com 1.10,2013-09-29 23:16:00,
2013-09-29 19:31:00,60.7,52.0,30.07,SSW,205,0.0,-999.0,73,-99.99,,,0.00,weatherlink.com 1.10,2013-09-29 23:31:00,
2013-09-29 19:46:00,59.6,51.0,30.07,SSW,205,0.0,-999.0,74,-99.99,,,0.00,weatherlink.com 1.10,2013-09-29 23:46:00,
2013-09-29 20:01:00,58.9,51.0,30.07,SSW,205,0.0,-999.0,76,-99.99,,,0.00,weatherlink.com 1.10,2013-09-30 00:01:00,
2013-09-29 20:16:00,58.1,51.0,30.07,SSW,205,0.0,-999.0,77,-99.99,,,0.00,weatherlink.com 1.10,2013-09-30 00:16:00,
2013-09-29 20:31:00,57.3,51.0,30.07,SSW,205,0.0,-999.0,78,-99.99,,,0.00,weatherlink.com 1.10,2013-09-30 00:31:00,
2013-09-29 20:47:00,56.4,50.0,30.07,SSW,205,0.0,-999.0,80,-99.99,,,0.00,weatherlink.com 1.10,2013-09-30 00:47:00,
2013-09-29 21:01:00,55.9,50.0,30.07,SSW,205,0.0,-999.0,81,-99.99,,,0.00,weatherlink.com 1.10,2013-09-30 01:01:00,
2013-09-29 21:16:00,55.3,50.0,30.07,SSW,205,0.0,-999.0,81,-99.99,,,0.00,weatherlink.com 1.10,2013-09-30 01:16:00,
2013-09-29 21:31:00,54.6,50.0,30.07,SSW,205,0.0,-999.0,83,-99.99,,,0.00,weatherlink.com 1.10,2013-09-30 01:31:00,
2013-09-29 21:46:00,54.0,49.0,30.07,SSW,205,0.0,-999.0,84,-99.99,,,0.00,weatherlink.com 1.10,2013-09-30 01:46:00,
2013-09-29 22:01:00,53.3,49.0,30.07,SSW,205,0.0,-999.0,85,-99.99,,,0.00,weatherlink.com 1.10,2013-09-30 02:01:00,
2013-09-29 22:16:00,52.8,49.0,30.07,SSW,205,0.0,-999.0,86,-99.99,,,0.00,weatherlink.com 1.10,2013-09-30 02:16:00,
2013-09-29 22:31:00,52.4,48.0,30.07,SSW,205,0.0,-999.0,86,-99.99,,,0.00,weatherlink.com 1.10,2013-09-30 02:31:00,
2013-09-29 22:46:00,51.6,48.0,30.08,SSW,205,0.0,-999.0,87,-99.99,,,0.00,weatherlink.com 1.10,2013-09-30 02:46:00,
2013-09-29 23:01:00,51.0,48.0,30.08,SSW,205,0.0,-999.0,88,-99.99,,,0.00,weatherlink.com 1.10,2013-09-30 03:01:00,
2013-09-29 23:16:00,50.5,47.0,30.08,SSW,205,0.0,-999.0,89,-99.99,,,0.00,weatherlink.com 1.10,2013-09-30 03:16:00,
2013-09-29 23:31:00,50.0,47.0,30.08,SSW,205,0.0,-999.0,89,-99.99,,,0.00,weatherlink.com 1.10,2013-09-30 03:31:00,
2013-09-29 23:46:00,49.6,47.0,30.08,SSW,205,0.0,-999.0,89,-99.99,,,0.00,weatherlink.com 1.10,2013-09-30 03:46:00,